createdAt,value
2023-03-26T00:02:17.848Z,94439.00
2023-03-26T00:06:17.736Z,94447.00
2023-03-26T00:10:17.858Z,94437.00
2023-03-26T00:14:18.038Z,94439.00
2023-03-26T00:18:17.913Z,94441.00
2023-03-26T00:22:18.001Z,94433.00
2023-03-26T00:26:18.015Z,94437.00
2023-03-26T00:30:18.057Z,94441.00
2023-03-26T00:34:17.968Z,94449.00
2023-03-26T00:38:18.005Z,94439.00
2023-03-26T00:42:17.976Z,94422.00
2023-03-26T00:46:18.038Z,94424.00
2023-03-26T00:50:17.939Z,94424.00
2023-03-26T00:54:17.951Z,94425.00
2023-03-26T00:58:17.890Z,94418.00
2023-03-26T01:02:17.943Z,94414.00
2023-03-26T01:06:18.290Z,94412.00
2023-03-26T01:10:17.915Z,94402.00
2023-03-26T01:14:17.891Z,94398.00
2023-03-26T01:18:17.924Z,94398.00
2023-03-26T01:22:17.890Z,94398.00
2023-03-26T01:26:17.914Z,94404.00
2023-03-26T01:30:17.943Z,94404.00
2023-03-26T01:34:17.966Z,94390.00
2023-03-26T01:38:17.944Z,94382.00
2023-03-26T01:42:17.981Z,94378.00
2023-03-26T01:46:18.015Z,94378.00
2023-03-26T01:50:17.968Z,94382.00
2023-03-26T01:54:18.041Z,94382.00
2023-03-26T01:58:18.037Z,94384.00
2023-03-26T02:02:18.153Z,94388.00
2023-03-26T02:06:18.146Z,94386.00
2023-03-26T02:10:18.202Z,94388.00
2023-03-26T02:14:18.231Z,94394.00
2023-03-26T02:18:18.307Z,94408.00
2023-03-26T02:22:18.361Z,94396.00
2023-03-26T02:26:18.359Z,94390.00
2023-03-26T02:30:18.411Z,94390.00
2023-03-26T02:34:18.541Z,94388.00
2023-03-26T02:38:18.512Z,94388.00
2023-03-26T02:42:18.580Z,94380.00
2023-03-26T02:46:18.713Z,94371.00
2023-03-26T02:50:18.680Z,94371.00
2023-03-26T02:54:18.779Z,94371.00
2023-03-26T02:58:18.817Z,94382.00
2023-03-26T03:02:18.908Z,94371.00
2023-03-26T03:06:19.021Z,94359.00
2023-03-26T03:10:18.990Z,94363.00
2023-03-26T03:14:19.089Z,94353.00
2023-03-26T03:18:19.144Z,94345.00
2023-03-26T03:22:19.248Z,94347.00
2023-03-26T03:26:19.338Z,94347.00
2023-03-26T03:30:19.374Z,94337.00
2023-03-26T03:34:19.490Z,94333.00
2023-03-26T03:38:19.688Z,94328.00
2023-03-26T03:42:19.636Z,94330.00
2023-03-26T03:46:19.747Z,94332.00
2023-03-26T03:50:19.811Z,94333.00
2023-03-26T03:54:19.908Z,94326.00
2023-03-26T03:58:19.977Z,94318.00
2023-03-26T04:02:20.096Z,94310.00
2023-03-26T04:06:20.134Z,94312.00
2023-03-26T04:10:20.269Z,94320.00
2023-03-26T04:14:20.339Z,94314.00
2023-03-26T04:18:20.466Z,94312.00
2023-03-26T04:22:20.586Z,94310.00
2023-03-26T04:26:20.673Z,94300.00
2023-03-26T04:30:20.799Z,94282.00
2023-03-26T04:34:20.926Z,94282.00
2023-03-26T04:38:21.053Z,94277.00
2023-03-26T04:42:21.187Z,94280.00
2023-03-26T04:46:21.338Z,94275.00
2023-03-26T04:50:21.443Z,94265.00
2023-03-26T04:54:21.580Z,94263.00
2023-03-26T04:58:21.759Z,94249.00
2023-03-26T05:02:22.983Z,94245.00
2023-03-26T05:06:21.998Z,94239.00
2023-03-26T05:10:22.199Z,94237.00
2023-03-26T05:14:22.323Z,94237.00
2023-03-26T05:18:22.470Z,94241.00
2023-03-26T05:22:22.630Z,94257.00
2023-03-26T05:26:22.883Z,94255.00
2023-03-26T05:30:22.992Z,94249.00
2023-03-26T05:34:23.113Z,94243.00
2023-03-26T05:38:23.248Z,94239.00
2023-03-26T05:42:23.419Z,94233.00
2023-03-26T05:46:23.623Z,94228.00
2023-03-26T05:50:23.692Z,94216.00
2023-03-26T05:54:24.549Z,94214.00
2023-03-26T05:58:24.565Z,94206.00
2023-03-26T06:02:24.563Z,94194.00
2023-03-26T06:06:24.527Z,94194.00
2023-03-26T06:10:24.619Z,94188.00
2023-03-26T06:14:24.883Z,94178.00
2023-03-26T06:18:24.991Z,94175.00
2023-03-26T06:22:25.152Z,94175.00
2023-03-26T06:26:25.185Z,94169.00
2023-03-26T06:30:25.410Z,94167.00
2023-03-26T06:34:26.088Z,94159.00
2023-03-26T06:38:25.792Z,94167.00
2023-03-26T06:43:08.267Z,94153.00
2023-03-26T06:46:26.797Z,94155.00
2023-03-26T06:50:25.699Z,94141.00
2023-03-26T06:54:25.665Z,94129.00
2023-03-26T06:58:25.786Z,94133.00
2023-03-26T07:02:25.930Z,94128.00
2023-03-26T07:06:26.016Z,94108.00
2023-03-26T07:10:26.079Z,94086.00
2023-03-26T07:14:26.216Z,94073.00
2023-03-26T07:18:26.267Z,94063.00
2023-03-26T07:22:26.379Z,94049.00
2023-03-26T07:26:26.418Z,94045.00
2023-03-26T07:30:26.470Z,94063.00
2023-03-26T07:34:26.505Z,94063.00
2023-03-26T07:38:26.579Z,94055.00
2023-03-26T07:42:26.616Z,94049.00
2023-03-26T07:46:26.680Z,94049.00
2023-03-26T07:50:26.709Z,94039.00
2023-03-26T07:54:26.794Z,94000.00
2023-03-26T07:58:26.840Z,93994.00
2023-03-26T08:02:26.880Z,93969.00
2023-03-26T08:06:26.878Z,93961.00
2023-03-26T08:10:26.905Z,93949.00
2023-03-26T08:14:26.981Z,93937.00
2023-03-26T08:18:26.982Z,93949.00
2023-03-26T08:22:26.930Z,93955.00
2023-03-26T08:26:26.976Z,93945.00
2023-03-26T08:30:26.985Z,93926.00
2023-03-26T08:34:27.004Z,93914.00
2023-03-26T08:38:27.015Z,93906.00
2023-03-26T08:42:26.946Z,93892.00
2023-03-26T08:46:26.979Z,93890.00
2023-03-26T08:50:26.992Z,93883.00
2023-03-26T08:54:26.884Z,93851.00
2023-03-26T08:58:26.917Z,93855.00
2023-03-26T09:02:26.883Z,93843.00
2023-03-26T09:06:26.876Z,93836.00
2023-03-26T09:10:26.835Z,93851.00
2023-03-26T09:14:26.841Z,93845.00
2023-03-26T09:18:26.851Z,93843.00
2023-03-26T09:22:26.813Z,93857.00
2023-03-26T09:26:26.756Z,93855.00
2023-03-26T09:30:26.758Z,93869.00
2023-03-26T09:34:26.788Z,93865.00
2023-03-26T09:38:26.778Z,93853.00
2023-03-26T09:42:26.770Z,93845.00
2023-03-26T09:46:26.728Z,93840.00
2023-03-26T09:50:26.793Z,93826.00
2023-03-26T09:54:26.890Z,93814.00
2023-03-26T09:58:27.009Z,93812.00
2023-03-26T10:02:46.314Z,93804.00
2023-03-26T10:06:28.113Z,93798.00
2023-03-26T10:10:27.106Z,93787.00
2023-03-26T10:14:27.086Z,93796.00
2023-03-26T10:18:29.951Z,93785.00
2023-03-26T10:22:27.254Z,93777.00
2023-03-26T10:26:27.218Z,93773.00
2023-03-26T10:30:27.265Z,93779.00
2023-03-26T10:34:28.919Z,93777.00
2023-03-26T10:38:27.563Z,93777.00
2023-03-26T10:42:27.320Z,93777.00
2023-03-26T10:46:27.367Z,93779.00
2023-03-26T10:50:27.274Z,93777.00
2023-03-26T10:54:27.196Z,93771.00
2023-03-26T10:58:27.180Z,93773.00
2023-03-26T11:02:29.919Z,93775.00
2023-03-26T11:06:27.137Z,93769.00
2023-03-26T11:10:27.068Z,93761.00
2023-03-26T11:14:34.421Z,93757.00
2023-03-26T11:18:28.089Z,93751.00
2023-03-26T11:22:26.984Z,93741.00
2023-03-26T11:26:26.970Z,93736.00
2023-03-26T11:30:26.930Z,93730.00
2023-03-26T11:34:26.922Z,93726.00
2023-03-26T11:38:26.892Z,93716.00
2023-03-26T11:42:26.809Z,93714.00
2023-03-26T11:46:26.846Z,93702.00
2023-03-26T11:50:26.769Z,93691.00
2023-03-26T11:54:26.697Z,93681.00
2023-03-26T11:58:26.674Z,93679.00
2023-03-26T12:02:26.719Z,93679.00
2023-03-26T12:06:27.194Z,93681.00
2023-03-26T12:10:26.827Z,93671.00
2023-03-26T12:14:27.046Z,93659.00
2023-03-26T12:18:27.220Z,93646.00
2023-03-26T12:22:27.480Z,93646.00
2023-03-26T12:26:27.620Z,93651.00
2023-03-26T12:30:27.817Z,93659.00
2023-03-26T12:34:28.007Z,93663.00
2023-03-26T12:38:28.288Z,93671.00
2023-03-26T12:44:49.665Z,93665.00
2023-03-26T12:47:55.627Z,93665.00
2023-03-26T12:50:34.523Z,93663.00
2023-03-26T12:54:29.377Z,93669.00
2023-03-26T12:58:28.273Z,93679.00
2023-03-26T13:02:28.378Z,93694.00
2023-03-26T13:06:28.212Z,93710.00
2023-03-26T13:10:28.182Z,93724.00
2023-03-26T13:14:28.109Z,93743.00
2023-03-26T13:18:28.383Z,93743.00
2023-03-26T13:22:28.527Z,93747.00
2023-03-26T13:26:28.476Z,93745.00
2023-03-26T13:30:28.492Z,93747.00
2023-03-26T13:34:28.441Z,93755.00
2023-03-26T13:38:28.427Z,93753.00
2023-03-26T13:42:28.367Z,93743.00
2023-03-26T13:46:28.336Z,93741.00
2023-03-26T13:50:28.308Z,93747.00
2023-03-26T13:54:28.245Z,93740.00
2023-03-26T13:58:34.451Z,93726.00
2023-03-26T14:02:29.205Z,93728.00
2023-03-26T14:06:28.137Z,93728.00
2023-03-26T14:10:28.084Z,93734.00
2023-03-26T14:14:28.055Z,93736.00
2023-03-26T14:18:28.061Z,93738.00
2023-03-26T14:22:28.011Z,93736.00
2023-03-26T14:26:28.018Z,93736.00
2023-03-26T14:30:28.070Z,93726.00
2023-03-26T14:34:28.080Z,93730.00
2023-03-26T14:38:28.104Z,93714.00
2023-03-26T14:42:28.028Z,93708.00
2023-03-26T14:46:28.117Z,93706.00
2023-03-26T14:50:28.083Z,93693.00
2023-03-26T14:54:28.079Z,93706.00
2023-03-26T14:58:28.075Z,93722.00
2023-03-26T15:02:28.705Z,93716.00
2023-03-26T15:06:28.093Z,93728.00
2023-03-26T15:10:28.075Z,93738.00
2023-03-26T15:14:28.083Z,93732.00
2023-03-26T15:18:28.073Z,93724.00
2023-03-26T15:22:28.092Z,93726.00
2023-03-26T15:26:28.023Z,93728.00
2023-03-26T15:30:27.971Z,93730.00
2023-03-26T15:34:28.004Z,93722.00
2023-03-26T15:38:28.006Z,93696.00
2023-03-26T15:42:28.021Z,93683.00
2023-03-26T15:46:28.028Z,93689.00
2023-03-26T15:50:28.017Z,93663.00
2023-03-26T15:54:28.043Z,93649.00
2023-03-26T15:58:28.048Z,93657.00
2023-03-26T16:02:28.205Z,93659.00
2023-03-26T16:06:28.277Z,93657.00
2023-03-26T16:10:28.107Z,93653.00
2023-03-26T16:14:28.091Z,93661.00
2023-03-26T16:18:28.250Z,93659.00
2023-03-26T16:22:28.345Z,93649.00
2023-03-26T16:26:28.384Z,93661.00
2023-03-26T16:30:28.359Z,93646.00
2023-03-26T16:34:28.326Z,93622.00
2023-03-26T16:38:28.330Z,93622.00
2023-03-26T16:42:28.407Z,93612.00
2023-03-26T16:46:28.250Z,93599.00
2023-03-26T16:50:28.199Z,93585.00
2023-03-26T16:54:28.154Z,93587.00
2023-03-26T16:58:28.220Z,93591.00
2023-03-26T17:02:28.168Z,93610.00
2023-03-26T17:06:28.022Z,93622.00
2023-03-26T17:10:28.060Z,93616.00
2023-03-26T17:14:28.137Z,93614.00
2023-03-26T17:18:28.210Z,93597.00
2023-03-26T17:22:28.242Z,93622.00
2023-03-26T17:26:28.305Z,93622.00
2023-03-26T17:30:28.343Z,93614.00
2023-03-26T17:34:28.412Z,93622.00
2023-03-26T17:38:28.527Z,93618.00
2023-03-26T17:42:28.556Z,93599.00
2023-03-26T17:46:28.723Z,93601.00
2023-03-26T17:50:28.639Z,93595.00
2023-03-26T17:54:28.733Z,93622.00
2023-03-26T17:58:28.812Z,93640.00
2023-03-26T18:02:28.956Z,93649.00
2023-03-26T18:06:28.933Z,93655.00
2023-03-26T18:10:29.068Z,93659.00
2023-03-26T18:14:29.122Z,93667.00
2023-03-26T18:18:29.198Z,93681.00
2023-03-26T18:22:29.269Z,93693.00
2023-03-26T18:26:29.301Z,93638.00
2023-03-26T18:30:29.415Z,93616.00
2023-03-26T18:34:29.536Z,93632.00
2023-03-26T18:38:35.506Z,93640.00
2023-03-26T18:42:30.576Z,93618.00
2023-03-26T18:46:29.584Z,93616.00
2023-03-26T18:50:29.545Z,93618.00
2023-03-26T18:54:29.469Z,93614.00
2023-03-26T18:58:29.491Z,93620.00
2023-03-26T19:02:29.786Z,93626.00
2023-03-26T19:06:29.731Z,93636.00
2023-03-26T19:10:29.840Z,93628.00
2023-03-26T19:14:30.197Z,93624.00
2023-03-26T19:18:30.080Z,93632.00
2023-03-26T19:22:30.175Z,93646.00
2023-03-26T19:26:30.319Z,93646.00
2023-03-26T19:30:30.432Z,93655.00
2023-03-26T19:34:30.552Z,93651.00
2023-03-26T19:38:30.607Z,93647.00
2023-03-26T19:46:31.785Z,93649.00
2023-03-26T19:50:30.688Z,93640.00
2023-03-26T19:51:18.120Z,93647.00
2023-03-26T19:54:30.672Z,93630.00
2023-03-26T19:58:30.736Z,93628.00
2023-03-26T20:02:31.019Z,93632.00
2023-03-26T20:06:42.336Z,93626.00
2023-03-26T20:10:32.244Z,93624.00
2023-03-26T20:14:31.005Z,93618.00
2023-03-26T20:18:30.947Z,93626.00
2023-03-26T20:22:31.067Z,93630.00
2023-03-26T20:26:31.172Z,93634.00
2023-03-26T20:30:37.332Z,93638.00
2023-03-26T20:34:32.286Z,93636.00
2023-03-26T20:38:39.063Z,93636.00
2023-03-26T20:42:32.248Z,93640.00
2023-03-26T20:46:31.907Z,93636.00
2023-03-26T20:50:31.623Z,93628.00
2023-03-26T20:54:31.372Z,93632.00
2023-03-26T20:58:32.424Z,93636.00
2023-03-26T21:02:31.790Z,93636.00
2023-03-26T21:06:31.879Z,93632.00
2023-03-26T21:10:31.981Z,93634.00
2023-03-26T21:14:32.174Z,93632.00
2023-03-26T21:18:32.400Z,93628.00
2023-03-26T21:22:32.507Z,93636.00
2023-03-26T21:26:32.674Z,93632.00
2023-03-26T21:30:32.876Z,93634.00
2023-03-26T21:34:33.523Z,93628.00
2023-03-26T21:38:33.197Z,93628.00
2023-03-26T21:42:33.457Z,93622.00
2023-03-26T21:46:33.600Z,93628.00
2023-03-26T21:50:33.821Z,93616.00
2023-03-26T21:54:34.031Z,93618.00
2023-03-26T21:58:34.187Z,93620.00
2023-03-26T22:02:34.438Z,93618.00
2023-03-26T22:06:34.581Z,93620.00
2023-03-26T22:10:34.758Z,93616.00
2023-03-26T22:14:34.988Z,93614.00
2023-03-26T22:18:35.154Z,93616.00
2023-03-26T22:22:35.811Z,93610.00
2023-03-26T22:26:35.576Z,93601.00
2023-03-26T22:30:35.806Z,93597.00
2023-03-26T22:34:35.785Z,93595.00
2023-03-26T22:38:35.787Z,93599.00
2023-03-26T22:42:35.718Z,93591.00
2023-03-26T22:46:35.688Z,93589.00
2023-03-26T22:50:35.683Z,93597.00
2023-03-26T22:54:35.619Z,93595.00
2023-03-26T22:58:35.545Z,93579.00
2023-03-26T23:02:35.605Z,93583.00
2023-03-26T23:06:35.508Z,93573.00
2023-03-26T23:10:35.684Z,93583.00
2023-03-26T23:14:35.553Z,93591.00
2023-03-26T23:18:35.462Z,93587.00
2023-03-26T23:22:35.429Z,93589.00
2023-03-26T23:26:47.833Z,93585.00
2023-03-26T23:30:36.379Z,93581.00
2023-03-26T23:34:35.406Z,93581.00
2023-03-26T23:38:43.779Z,93581.00
2023-03-26T23:42:36.300Z,93579.00
2023-03-26T23:46:35.248Z,93575.00
2023-03-26T23:50:35.439Z,93581.00
2023-03-26T23:54:35.462Z,93583.00
2023-03-26T23:58:35.338Z,93589.00
